sensor_id;sensor_type;location;lat;lon;timestamp;pressure;altitude;pressure_sealevel;temperature;humidity
67842;BME280;54642;59.126;37.876;2023-02-13T00:01:51;99621.53;;;-5.76;73.00
67842;BME280;54642;59.126;37.876;2023-02-13T00:04:17;99583.94;;;-5.88;72.88
67842;BME280;54642;59.126;37.876;2023-02-13T00:06:43;99605.78;;;-5.72;73.10
67842;BME280;54642;59.126;37.876;2023-02-13T00:09:12;99587.69;;;-5.80;73.08
67842;BME280;54642;59.126;37.876;2023-02-13T00:11:38;99573.59;;;-5.76;73.15
67842;BME280;54642;59.126;37.876;2023-02-13T00:14:04;99580.84;;;-5.66;73.02
67842;BME280;54642;59.126;37.876;2023-02-13T00:16:30;99588.50;;;-5.64;73.14
67842;BME280;54642;59.126;37.876;2023-02-13T00:18:56;99513.84;;;-5.94;73.43
67842;BME280;54642;59.126;37.876;2023-02-13T00:21:22;99493.66;;;-5.94;72.99
67842;BME280;54642;59.126;37.876;2023-02-13T00:23:48;99520.84;;;-5.71;73.11
67842;BME280;54642;59.126;37.876;2023-02-13T00:26:15;99510.03;;;-5.69;73.13
67842;BME280;54642;59.126;37.876;2023-02-13T00:28:44;99534.38;;;-5.53;73.56
67842;BME280;54642;59.126;37.876;2023-02-13T00:31:13;99536.75;;;-5.40;73.46
67842;BME280;54642;59.126;37.876;2023-02-13T00:33:40;99492.03;;;-5.59;73.30
67842;BME280;54642;59.126;37.876;2023-02-13T00:36:12;99451.28;;;-5.66;73.43
67842;BME280;54642;59.126;37.876;2023-02-13T00:38:39;99462.75;;;-5.55;73.51
67842;BME280;54642;59.126;37.876;2023-02-13T00:41:06;99508.28;;;-5.19;73.63
67842;BME280;54642;59.126;37.876;2023-02-13T00:43:34;99447.03;;;-5.49;73.80
67842;BME280;54642;59.126;37.876;2023-02-13T00:46:01;99482.25;;;-5.18;73.96
67842;BME280;54642;59.126;37.876;2023-02-13T00:48:29;99418.41;;;-5.50;74.35
67842;BME280;54642;59.126;37.876;2023-02-13T00:50:55;99436.03;;;-5.33;74.50
67842;BME280;54642;59.126;37.876;2023-02-13T00:53:23;99464.34;;;-5.05;74.73
67842;BME280;54642;59.126;37.876;2023-02-13T00:55:49;99470.63;;;-4.96;74.73
67842;BME280;54642;59.126;37.876;2023-02-13T00:58:16;99487.31;;;-4.82;74.89
67842;BME280;54642;59.126;37.876;2023-02-13T01:00:43;99479.88;;;-4.79;75.00
67842;BME280;54642;59.126;37.876;2023-02-13T01:03:09;99404.22;;;-5.12;75.12
67842;BME280;54642;59.126;37.876;2023-02-13T01:05:36;99457.19;;;-4.78;75.30
67842;BME280;54642;59.126;37.876;2023-02-13T01:08:02;99398.03;;;-5.01;75.35
67842;BME280;54642;59.126;37.876;2023-02-13T01:10:27;99398.03;;;-5.01;75.54
67842;BME280;54642;59.126;37.876;2023-02-13T01:12:53;99380.84;;;-5.08;75.65
67842;BME280;54642;59.126;37.876;2023-02-13T01:15:20;99436.31;;;-4.73;75.46
67842;BME280;54642;59.126;37.876;2023-02-13T01:17:47;99417.03;;;-4.71;75.43
67842;BME280;54642;59.126;37.876;2023-02-13T01:20:13;99435.22;;;-4.61;75.66
67842;BME280;54642;59.126;37.876;2023-02-13T01:22:40;99434.63;;;-4.55;75.67
67842;BME280;54642;59.126;37.876;2023-02-13T01:25:09;99335.22;;;-5.11;75.36
67842;BME280;54642;59.126;37.876;2023-02-13T01:27:35;99322.38;;;-5.15;75.69
67842;BME280;54642;59.126;37.876;2023-02-13T01:30:04;99424.72;;;-4.50;75.86
67842;BME280;54642;59.126;37.876;2023-02-13T01:32:35;99341.94;;;-4.92;75.67
67842;BME280;54642;59.126;37.876;2023-02-13T01:35:00;99406.72;;;-4.56;75.77
67842;BME280;54642;59.126;37.876;2023-02-13T01:37:26;99331.22;;;-4.88;75.87
67842;BME280;54642;59.126;37.876;2023-02-13T01:39:52;99317.44;;;-4.94;76.15
67842;BME280;54642;59.126;37.876;2023-02-13T01:42:27;99362.81;;;-4.58;76.36
67842;BME280;54642;59.126;37.876;2023-02-13T01:45:02;99363.13;;;-4.52;76.42
67842;BME280;54642;59.126;37.876;2023-02-13T01:55:27;99366.56;;;-4.50;76.44
67842;BME280;54642;59.126;37.876;2023-02-13T01:58:00;99350.41;;;-4.54;76.84
67842;BME280;54642;59.126;37.876;2023-02-13T02:00:27;99350.41;;;-4.54;76.68
67842;BME280;54642;59.126;37.876;2023-02-13T02:02:59;99358.16;;;-4.49;76.41
67842;BME280;54642;59.126;37.876;2023-02-13T02:05:29;99330.88;;;-4.56;76.30
67842;BME280;54642;59.126;37.876;2023-02-13T02:07:57;99349.25;;;-4.41;76.52
67842;BME280;54642;59.126;37.876;2023-02-13T02:10:25;99340.75;;;-4.43;76.44
67842;BME280;54642;59.126;37.876;2023-02-13T02:13:12;99347.50;;;-4.42;76.74
67842;BME280;54642;59.126;37.876;2023-02-13T02:15:40;99324.81;;;-4.41;76.53
67842;BME280;54642;59.126;37.876;2023-02-13T02:18:19;99290.56;;;-4.53;76.68
67842;BME280;54642;59.126;37.876;2023-02-13T02:32:20;99332.94;;;-4.28;77.00
67842;BME280;54642;59.126;37.876;2023-02-13T02:37:56;99292.41;;;-4.49;77.26
67842;BME280;54642;59.126;37.876;2023-02-13T02:40:47;99324.13;;;-4.17;77.21
67842;BME280;54642;59.126;37.876;2023-02-13T02:43:38;99251.56;;;-4.58;77.16
67842;BME280;54642;59.126;37.876;2023-02-13T02:48:50;99334.66;;;-4.08;77.10
67842;BME280;54642;59.126;37.876;2023-02-13T02:52:05;99264.44;;;-4.33;76.93
67842;BME280;54642;59.126;37.876;2023-02-13T02:54:39;99309.53;;;-4.03;76.84
67842;BME280;54642;59.126;37.876;2023-02-13T02:57:31;99297.78;;;-4.01;76.72
67842;BME280;54642;59.126;37.876;2023-02-13T03:00:19;99294.53;;;-3.98;77.02
67842;BME280;54642;59.126;37.876;2023-02-13T03:03:11;99311.56;;;-3.94;76.82
67842;BME280;54642;59.126;37.876;2023-02-13T03:06:00;99274.03;;;-4.05;76.68
67842;BME280;54642;59.126;37.876;2023-02-13T03:08:45;99295.59;;;-3.93;76.83
67842;BME280;54642;59.126;37.876;2023-02-13T03:11:34;99288.00;;;-3.93;76.91
67842;BME280;54642;59.126;37.876;2023-02-13T03:14:20;99232.53;;;-4.29;77.04
67842;BME280;54642;59.126;37.876;2023-02-13T03:16:46;99290.56;;;-3.92;76.83
67842;BME280;54642;59.126;37.876;2023-02-13T03:19:51;99287.19;;;-3.92;76.87
67842;BME280;54642;59.126;37.876;2023-02-13T03:34:03;99260.88;;;-3.96;77.20
67842;BME280;54642;59.126;37.876;2023-02-13T03:42:35;99287.91;;;-3.74;77.48
67842;BME280;54642;59.126;37.876;2023-02-13T03:45:12;99255.25;;;-3.89;76.96
67842;BME280;54642;59.126;37.876;2023-02-13T03:48:00;99241.81;;;-3.88;77.22
67842;BME280;54642;59.126;37.876;2023-02-13T03:50:38;99284.44;;;-3.55;77.35
67842;BME280;54642;59.126;37.876;2023-02-13T03:53:09;99251.97;;;-3.65;77.27
67842;BME280;54642;59.126;37.876;2023-02-13T03:55:39;99221.91;;;-3.78;77.12
67842;BME280;54642;59.126;37.876;2023-02-13T03:58:29;99270.34;;;-3.48;77.36
67842;BME280;54642;59.126;37.876;2023-02-13T04:01:17;99279.97;;;-3.39;77.29
67842;BME280;54642;59.126;37.876;2023-02-13T04:06:12;99278.34;;;-3.37;77.27
67842;BME280;54642;59.126;37.876;2023-02-13T04:08:40;99279.34;;;-3.34;77.32
67842;BME280;54642;59.126;37.876;2023-02-13T04:13:45;99206.09;;;-3.73;77.40
67842;BME280;54642;59.126;37.876;2023-02-13T04:16:29;99276.56;;;-3.40;77.55
67842;BME280;54642;59.126;37.876;2023-02-13T04:18:58;99205.25;;;-3.73;77.47
67842;BME280;54642;59.126;37.876;2023-02-13T04:21:25;99279.41;;;-3.32;77.63
67842;BME280;54642;59.126;37.876;2023-02-13T04:23:51;99263.94;;;-3.38;77.73
67842;BME280;54642;59.126;37.876;2023-02-13T04:26:20;99251.91;;;-3.44;77.85
67842;BME280;54642;59.126;37.876;2023-02-13T04:28:47;99271.34;;;-3.45;77.84
67842;BME280;54642;59.126;37.876;2023-02-13T04:31:13;99242.50;;;-3.48;77.88
67842;BME280;54642;59.126;37.876;2023-02-13T04:33:39;99208.31;;;-3.59;78.06
67842;BME280;54642;59.126;37.876;2023-02-13T04:36:05;99263.63;;;-3.25;78.04
67842;BME280;54642;59.126;37.876;2023-02-13T04:38:31;99273.97;;;-3.19;77.92
67842;BME280;54642;59.126;37.876;2023-02-13T04:40:57;99263.44;;;-3.30;78.09
67842;BME280;54642;59.126;37.876;2023-02-13T04:43:23;99220.78;;;-3.41;78.22
67842;BME280;54642;59.126;37.876;2023-02-13T04:45:50;99206.91;;;-3.51;78.34
67842;BME280;54642;59.126;37.876;2023-02-13T04:48:16;99264.13;;;-3.11;78.46
67842;BME280;54642;59.126;37.876;2023-02-13T04:50:42;99219.31;;;-3.35;78.34
67842;BME280;54642;59.126;37.876;2023-02-13T04:53:08;99253.94;;;-3.13;78.40
67842;BME280;54642;59.126;37.876;2023-02-13T04:55:34;99246.28;;;-3.14;78.27
67842;BME280;54642;59.126;37.876;2023-02-13T04:58:00;99259.34;;;-3.03;78.47
67842;BME280;54642;59.126;37.876;2023-02-13T05:00:27;99264.41;;;-3.03;78.56
67842;BME280;54642;59.126;37.876;2023-02-13T05:02:53;99253.41;;;-3.04;78.61
67842;BME280;54642;59.126;37.876;2023-02-13T05:05:24;99225.09;;;-3.16;78.58
67842;BME280;54642;59.126;37.876;2023-02-13T05:07:50;99151.19;;;-3.51;78.68
67842;BME280;54642;59.126;37.876;2023-02-13T05:10:16;99245.03;;;-3.01;78.81
67842;BME280;54642;59.126;37.876;2023-02-13T05:12:42;99221.38;;;-3.02;78.62
67842;BME280;54642;59.126;37.876;2023-02-13T05:15:08;99256.97;;;-2.75;78.41
67842;BME280;54642;59.126;37.876;2023-02-13T05:17:34;99245.34;;;-2.70;78.52
67842;BME280;54642;59.126;37.876;2023-02-13T05:20:00;99233.44;;;-2.71;78.65
67842;BME280;54642;59.126;37.876;2023-02-13T05:22:26;99219.66;;;-2.79;78.47
67842;BME280;54642;59.126;37.876;2023-02-13T05:25:10;99210.63;;;-2.71;78.55
67842;BME280;54642;59.126;37.876;2023-02-13T05:27:36;99185.88;;;-2.78;78.54
67842;BME280;54642;59.126;37.876;2023-02-13T05:30:02;99173.13;;;-2.79;78.50
67842;BME280;54642;59.126;37.876;2023-02-13T05:32:29;99154.34;;;-2.86;78.55
67842;BME280;54642;59.126;37.876;2023-02-13T05:34:54;99243.06;;;-2.36;78.48
67842;BME280;54642;59.126;37.876;2023-02-13T05:37:20;99196.06;;;-2.51;78.47
67842;BME280;54642;59.126;37.876;2023-02-13T05:39:46;99225.66;;;-2.25;78.74
67842;BME280;54642;59.126;37.876;2023-02-13T05:42:12;99230.94;;;-2.19;78.65
67842;BME280;54642;59.126;37.876;2023-02-13T05:44:38;99144.38;;;-2.54;78.39
67842;BME280;54642;59.126;37.876;2023-02-13T05:47:04;99210.81;;;-2.13;78.56
67842;BME280;54642;59.126;37.876;2023-02-13T05:49:30;99108.50;;;-2.65;78.59
67842;BME280;54642;59.126;37.876;2023-02-13T05:51:56;99199.72;;;-2.17;78.61
67842;BME280;54642;59.126;37.876;2023-02-13T05:54:22;99220.56;;;-2.00;78.53
67842;BME280;54642;59.126;37.876;2023-02-13T05:56:48;99164.66;;;-2.28;78.51
67842;BME280;54642;59.126;37.876;2023-02-13T05:59:13;99219.13;;;-1.92;78.46
67842;BME280;54642;59.126;37.876;2023-02-13T06:01:40;99206.44;;;-1.92;78.50
67842;BME280;54642;59.126;37.876;2023-02-13T06:04:06;99205.78;;;-1.86;78.42
67842;BME280;54642;59.126;37.876;2023-02-13T06:06:32;99188.75;;;-1.88;78.40
67842;BME280;54642;59.126;37.876;2023-02-13T06:08:57;99212.78;;;-1.77;78.30
67842;BME280;54642;59.126;37.876;2023-02-13T06:11:23;99189.75;;;-1.83;78.28
67842;BME280;54642;59.126;37.876;2023-02-13T06:13:49;99221.41;;;-1.72;78.30
67842;BME280;54642;59.126;37.876;2023-02-13T06:16:15;99170.34;;;-1.81;78.37
67842;BME280;54642;59.126;37.876;2023-02-13T06:18:41;99189.31;;;-1.70;78.31
67842;BME280;54642;59.126;37.876;2023-02-13T06:21:07;99191.47;;;-1.55;78.32
67842;BME280;54642;59.126;37.876;2023-02-13T06:23:33;99177.56;;;-1.66;77.96
67842;BME280;54642;59.126;37.876;2023-02-13T06:26:07;99181.94;;;-1.62;78.00
67842;BME280;54642;59.126;37.876;2023-02-13T06:28:33;99191.56;;;-1.50;77.94
67842;BME280;54642;59.126;37.876;2023-02-13T06:30:59;99179.81;;;-1.48;77.97
67842;BME280;54642;59.126;37.876;2023-02-13T06:33:26;99184.88;;;-1.48;78.21
67842;BME280;54642;59.126;37.876;2023-02-13T06:35:52;99167.81;;;-1.52;78.25
67842;BME280;54642;59.126;37.876;2023-02-13T06:38:18;99174.03;;;-1.43;78.25
67842;BME280;54642;59.126;37.876;2023-02-13T06:40:47;99125.69;;;-1.75;78.16
67842;BME280;54642;59.126;37.876;2023-02-13T06:43:14;99177.63;;;-1.35;78.38
67842;BME280;54642;59.126;37.876;2023-02-13T06:45:40;99159.69;;;-1.41;78.06
67842;BME280;54642;59.126;37.876;2023-02-13T06:48:06;99173.53;;;-1.29;78.13
67842;BME280;54642;59.126;37.876;2023-02-13T06:50:32;99121.38;;;-1.47;78.18
67842;BME280;54642;59.126;37.876;2023-02-13T06:52:59;99168.91;;;-1.14;78.36
67842;BME280;54642;59.126;37.876;2023-02-13T06:55:25;99132.03;;;-1.30;78.40
67842;BME280;54642;59.126;37.876;2023-02-13T06:57:51;99070.16;;;-1.62;78.18
67842;BME280;54642;59.126;37.876;2023-02-13T07:00:18;99154.59;;;-1.10;78.36
67842;BME280;54642;59.126;37.876;2023-02-13T07:02:45;99129.72;;;-1.21;78.14
67842;BME280;54642;59.126;37.876;2023-02-13T07:05:12;99157.38;;;-1.01;78.13
67842;BME280;54642;59.126;37.876;2023-02-13T07:07:39;99137.03;;;-1.01;78.27
67842;BME280;54642;59.126;37.876;2023-02-13T07:10:09;99144.06;;;-0.92;78.26
67842;BME280;54642;59.126;37.876;2023-02-13T07:12:35;99101.84;;;-1.18;78.29
67842;BME280;54642;59.126;37.876;2023-02-13T07:15:03;99148.34;;;-0.90;78.39
67842;BME280;54642;59.126;37.876;2023-02-13T07:17:29;99147.81;;;-0.78;78.50
67842;BME280;54642;59.126;37.876;2023-02-13T07:19:56;99140.13;;;-0.80;78.45
67842;BME280;54642;59.126;37.876;2023-02-13T07:22:22;99089.69;;;-0.96;78.69
67842;BME280;54642;59.126;37.876;2023-02-13T07:24:48;99130.19;;;-0.70;78.63
67842;BME280;54642;59.126;37.876;2023-02-13T07:27:14;99114.69;;;-0.80;78.60
67842;BME280;54642;59.126;37.876;2023-02-13T07:29:40;99132.09;;;-0.62;78.51
67842;BME280;54642;59.126;37.876;2023-02-13T07:32:05;99130.41;;;-0.61;78.54
67842;BME280;54642;59.126;37.876;2023-02-13T07:34:32;99076.53;;;-0.80;78.57
67842;BME280;54642;59.126;37.876;2023-02-13T07:36:58;99086.00;;;-0.74;78.56
67842;BME280;54642;59.126;37.876;2023-02-13T07:39:24;99074.88;;;-0.78;78.63
67842;BME280;54642;59.126;37.876;2023-02-13T07:41:50;99106.66;;;-0.62;78.69
67842;BME280;54642;59.126;37.876;2023-02-13T07:44:17;99112.06;;;-0.49;78.64
67842;BME280;54642;59.126;37.876;2023-02-13T07:46:42;99116.47;;;-0.42;78.77
67842;BME280;54642;59.126;37.876;2023-02-13T07:49:08;99119.13;;;-0.36;78.61
67842;BME280;54642;59.126;37.876;2023-02-13T07:51:34;99114.84;;;-0.39;78.83
67842;BME280;54642;59.126;37.876;2023-02-13T07:54:01;99081.56;;;-0.48;78.62
67842;BME280;54642;59.126;37.876;2023-02-13T07:56:27;99086.81;;;-0.40;78.82
67842;BME280;54642;59.126;37.876;2023-02-13T07:58:53;99102.34;;;-0.29;78.72
67842;BME280;54642;59.126;37.876;2023-02-13T08:01:19;99115.97;;;-0.27;78.91
67842;BME280;54642;59.126;37.876;2023-02-13T08:03:48;99103.38;;;-0.21;78.68
67842;BME280;54642;59.126;37.876;2023-02-13T08:06:18;99053.56;;;-0.48;78.47
67842;BME280;54642;59.126;37.876;2023-02-13T08:08:45;99086.38;;;-0.22;78.67
67842;BME280;54642;59.126;37.876;2023-02-13T08:11:23;99089.00;;;-0.19;78.75
67842;BME280;54642;59.126;37.876;2023-02-13T08:14:11;99092.56;;;-0.12;78.92
67842;BME280;54642;59.126;37.876;2023-02-13T08:16:37;99091.81;;;-0.07;78.83
67842;BME280;54642;59.126;37.876;2023-02-13T08:19:02;99034.41;;;-0.32;79.00
67842;BME280;54642;59.126;37.876;2023-02-13T08:21:29;99059.31;;;-0.17;79.07
67842;BME280;54642;59.126;37.876;2023-02-13T08:23:55;99062.06;;;-0.08;79.16
67842;BME280;54642;59.126;37.876;2023-02-13T08:26:21;99079.44;;;0.10;79.01
67842;BME280;54642;59.126;37.876;2023-02-13T08:28:47;99045.16;;;-0.04;78.88
67842;BME280;54642;59.126;37.876;2023-02-13T08:31:13;99016.19;;;-0.09;78.80
67842;BME280;54642;59.126;37.876;2023-02-13T08:33:39;99072.94;;;0.25;78.71
67842;BME280;54642;59.126;37.876;2023-02-13T08:36:06;99072.97;;;0.26;78.65
67842;BME280;54642;59.126;37.876;2023-02-13T08:38:33;99014.56;;;-0.06;78.70
67842;BME280;54642;59.126;37.876;2023-02-13T08:40:59;99063.66;;;0.28;78.75
67842;BME280;54642;59.126;37.876;2023-02-13T08:43:25;99060.38;;;0.32;78.85
67842;BME280;54642;59.126;37.876;2023-02-13T08:45:51;99050.19;;;0.34;78.87
67842;BME280;54642;59.126;37.876;2023-02-13T08:48:17;99006.50;;;0.15;78.73
67842;BME280;54642;59.126;37.876;2023-02-13T08:50:42;99060.78;;;0.54;78.66
67842;BME280;54642;59.126;37.876;2023-02-13T08:53:08;99053.84;;;0.47;78.50
67842;BME280;54642;59.126;37.876;2023-02-13T08:55:34;98991.44;;;0.26;78.45
67842;BME280;54642;59.126;37.876;2023-02-13T08:58:01;99028.63;;;0.62;78.64
67842;BME280;54642;59.126;37.876;2023-02-13T09:00:27;99037.16;;;0.64;78.58
67842;BME280;54642;59.126;37.876;2023-02-13T09:02:54;98996.97;;;0.49;78.68
67842;BME280;54642;59.126;37.876;2023-02-13T09:05:20;99011.59;;;0.60;78.56
67842;BME280;54642;59.126;37.876;2023-02-13T09:07:45;99022.91;;;0.74;78.51
67842;BME280;54642;59.126;37.876;2023-02-13T09:10:11;98967.13;;;0.44;78.53
67842;BME280;54642;59.126;37.876;2023-02-13T09:12:37;99016.06;;;0.73;78.56
67842;BME280;54642;59.126;37.876;2023-02-13T09:15:04;99017.78;;;0.72;78.47
67842;BME280;54642;59.126;37.876;2023-02-13T09:17:30;98967.97;;;0.44;78.53
67842;BME280;54642;59.126;37.876;2023-02-13T09:19:56;98977.38;;;0.48;78.69
67842;BME280;54642;59.126;37.876;2023-02-13T09:22:21;99009.41;;;0.80;78.59
67842;BME280;54642;59.126;37.876;2023-02-13T09:24:48;98997.47;;;0.77;78.33
67842;BME280;54642;59.126;37.876;2023-02-13T09:27:13;98998.41;;;0.84;78.61
67842;BME280;54642;59.126;37.876;2023-02-13T09:29:39;98991.63;;;0.83;78.35
67842;BME280;54642;59.126;37.876;2023-02-13T09:32:05;99000.22;;;0.91;78.47
67842;BME280;54642;59.126;37.876;2023-02-13T09:34:31;98989.19;;;0.90;78.57
67842;BME280;54642;59.126;37.876;2023-02-13T09:36:57;98998.63;;;0.96;78.49
67842;BME280;54642;59.126;37.876;2023-02-13T09:39:23;98963.47;;;0.78;78.42
67842;BME280;54642;59.126;37.876;2023-02-13T09:41:51;98979.81;;;0.91;78.48
67842;BME280;54642;59.126;37.876;2023-02-13T09:44:39;98985.19;;;1.06;78.65
67842;BME280;54642;59.126;37.876;2023-02-13T09:47:18;98937.94;;;0.76;78.37
67842;BME280;54642;59.126;37.876;2023-02-13T09:49:50;98967.44;;;1.14;78.58
67842;BME280;54642;59.126;37.876;2023-02-13T09:52:17;98945.09;;;0.99;78.68
67842;BME280;54642;59.126;37.876;2023-02-13T09:54:43;98922.72;;;0.81;78.54
67842;BME280;54642;59.126;37.876;2023-02-13T09:57:17;98912.56;;;0.83;78.76
67842;BME280;54642;59.126;37.876;2023-02-13T10:00:06;98908.38;;;0.89;78.79
67842;BME280;54642;59.126;37.876;2023-02-13T10:10:52;98942.94;;;1.27;79.01
67842;BME280;54642;59.126;37.876;2023-02-13T10:16:20;98923.38;;;1.24;78.97
67842;BME280;54642;59.126;37.876;2023-02-13T10:18:54;98907.97;;;1.20;78.73
67842;BME280;54642;59.126;37.876;2023-02-13T10:21:26;98925.13;;;1.30;78.96
67842;BME280;54642;59.126;37.876;2023-02-13T10:26:19;98924.41;;;1.39;78.73
67842;BME280;54642;59.126;37.876;2023-02-13T10:29:02;98882.47;;;1.18;78.83
67842;BME280;54642;59.126;37.876;2023-02-13T10:31:49;98888.47;;;1.23;78.84
67842;BME280;54642;59.126;37.876;2023-02-13T10:34:21;98870.59;;;1.22;78.69
67842;BME280;54642;59.126;37.876;2023-02-13T10:36:49;98910.91;;;1.47;78.71
67842;BME280;54642;59.126;37.876;2023-02-13T10:39:21;98904.97;;;1.50;78.58
67842;BME280;54642;59.126;37.876;2023-02-13T10:48:14;98893.09;;;1.52;78.80
67842;BME280;54642;59.126;37.876;2023-02-13T10:56:39;98881.09;;;1.43;78.53
67842;BME280;54642;59.126;37.876;2023-02-13T11:01:54;98864.91;;;1.44;78.72
67842;BME280;54642;59.126;37.876;2023-02-13T11:04:21;98870.97;;;1.51;78.71
67842;BME280;54642;59.126;37.876;2023-02-13T11:07:03;98875.22;;;1.52;78.73
67842;BME280;54642;59.126;37.876;2023-02-13T11:09:35;98861.56;;;1.50;78.65
67842;BME280;54642;59.126;37.876;2023-02-13T11:15:29;98833.47;;;1.48;78.61
67842;BME280;54642;59.126;37.876;2023-02-13T11:18:12;98834.31;;;1.47;78.65
67842;BME280;54642;59.126;37.876;2023-02-13T11:20:41;98825.81;;;1.45;78.38
67842;BME280;54642;59.126;37.876;2023-02-13T11:26:05;98774.50;;;1.27;78.52
67842;BME280;54642;59.126;37.876;2023-02-13T11:28:43;98833.63;;;1.61;78.31
67842;BME280;54642;59.126;37.876;2023-02-13T11:31:15;98820.84;;;1.58;78.45
67842;BME280;54642;59.126;37.876;2023-02-13T11:33:43;98823.31;;;1.51;78.59
67842;BME280;54642;59.126;37.876;2023-02-13T11:36:13;98824.16;;;1.53;78.45
67842;BME280;54642;59.126;37.876;2023-02-13T11:38:40;98824.13;;;1.47;78.51
67842;BME280;54642;59.126;37.876;2023-02-13T11:41:11;98826.56;;;1.38;78.67
67842;BME280;54642;59.126;37.876;2023-02-13T11:43:59;98812.13;;;1.40;78.92
67842;BME280;54642;59.126;37.876;2023-02-13T11:46:51;98813.75;;;1.35;78.81
67842;BME280;54642;59.126;37.876;2023-02-13T11:49:27;98753.91;;;1.08;79.07
67842;BME280;54642;59.126;37.876;2023-02-13T11:52:06;98821.59;;;1.49;78.96
67842;BME280;54642;59.126;37.876;2023-02-13T11:54:38;98766.78;;;1.21;78.77
67842;BME280;54642;59.126;37.876;2023-02-13T11:57:19;98790.88;;;1.44;79.25
67842;BME280;54642;59.126;37.876;2023-02-13T11:59:48;98736.16;;;1.19;78.92
67842;BME280;54642;59.126;37.876;2023-02-13T12:04:52;98785.88;;;1.53;79.07
67842;BME280;54642;59.126;37.876;2023-02-13T12:09:52;98698.69;;;1.13;78.71
67842;BME280;54642;59.126;37.876;2023-02-13T12:12:43;98778.25;;;1.57;78.87
67842;BME280;54642;59.126;37.876;2023-02-13T12:15:25;98721.81;;;1.32;78.69
67842;BME280;54642;59.126;37.876;2023-02-13T12:18:15;98774.06;;;1.62;78.71
67842;BME280;54642;59.126;37.876;2023-02-13T12:20:52;98772.41;;;1.65;78.86
67842;BME280;54642;59.126;37.876;2023-02-13T12:23:48;98785.13;;;1.64;78.75
67842;BME280;54642;59.126;37.876;2023-02-13T12:26:28;98715.91;;;1.33;78.60
67842;BME280;54642;59.126;37.876;2023-02-13T12:29:18;98757.91;;;1.63;78.86
67842;BME280;54642;59.126;37.876;2023-02-13T12:34:54;98748.50;;;1.60;78.81
67842;BME280;54642;59.126;37.876;2023-02-13T12:48:46;98728.78;;;1.45;78.50
67842;BME280;54642;59.126;37.876;2023-02-13T12:59:54;98740.00;;;1.61;78.85
67842;BME280;54642;59.126;37.876;2023-02-13T13:08:45;98720.41;;;1.59;78.72
67842;BME280;54642;59.126;37.876;2023-02-13T13:16:54;98723.81;;;1.58;78.71
67842;BME280;54642;59.126;37.876;2023-02-13T13:20:21;98711.88;;;1.57;78.78
67842;BME280;54642;59.126;37.876;2023-02-13T13:22:32;98656.28;;;1.26;78.81
67842;BME280;54642;59.126;37.876;2023-02-13T13:25:25;98708.50;;;1.58;78.81
67842;BME280;54642;59.126;37.876;2023-02-13T13:28:01;98688.03;;;1.55;78.73
67842;BME280;54642;59.126;37.876;2023-02-13T13:30:32;98670.91;;;1.44;78.50
67842;BME280;54642;59.126;37.876;2023-02-13T13:33:03;98634.97;;;1.23;78.79
67842;BME280;54642;59.126;37.876;2023-02-13T13:35:31;98683.81;;;1.58;78.45
67842;BME280;54642;59.126;37.876;2023-02-13T13:40:56;98689.75;;;1.59;79.01
67842;BME280;54642;59.126;37.876;2023-02-13T13:46:30;98672.63;;;1.48;78.97
67842;BME280;54642;59.126;37.876;2023-02-13T13:51:48;98702.47;;;1.56;78.94
67842;BME280;54642;59.126;37.876;2023-02-13T14:05:55;98668.31;;;1.41;79.01
67842;BME280;54642;59.126;37.876;2023-02-13T14:07:50;98686.25;;;1.46;79.05
67842;BME280;54642;59.126;37.876;2023-02-13T14:12:59;98693.94;;;1.50;79.44
67842;BME280;54642;59.126;37.876;2023-02-13T14:20:50;98668.31;;;1.38;79.66
67842;BME280;54642;59.126;37.876;2023-02-13T14:23:31;98685.44;;;1.51;80.01
67842;BME280;54642;59.126;37.876;2023-02-13T14:28:38;98644.44;;;1.35;79.69
67842;BME280;54642;59.126;37.876;2023-02-13T14:31:09;98678.63;;;1.49;79.75
67842;BME280;54642;59.126;37.876;2023-02-13T14:37:05;98599.03;;;1.01;79.86
67842;BME280;54642;59.126;37.876;2023-02-13T14:39:33;98647.00;;;1.33;79.89
67842;BME280;54642;59.126;37.876;2023-02-13T14:42:26;98633.28;;;1.25;80.24
67842;BME280;54642;59.126;37.876;2023-02-13T14:44:55;98646.13;;;1.34;80.29
67842;BME280;54642;59.126;37.876;2023-02-13T14:47:41;98636.72;;;1.28;80.42
67842;BME280;54642;59.126;37.876;2023-02-13T14:50:18;98641.84;;;1.30;80.34
67842;BME280;54642;59.126;37.876;2023-02-13T14:52:46;98575.16;;;0.93;80.14
67842;BME280;54642;59.126;37.876;2023-02-13T14:55:26;98633.34;;;1.29;80.42
67842;BME280;54642;59.126;37.876;2023-02-13T14:58:06;98577.72;;;0.96;80.41
67842;BME280;54642;59.126;37.876;2023-02-13T15:00:48;98578.59;;;0.95;80.49
67842;BME280;54642;59.126;37.876;2023-02-13T15:03:30;98583.69;;;0.98;80.34
67842;BME280;54642;59.126;37.876;2023-02-13T15:06:04;98644.44;;;1.35;80.63
67842;BME280;54642;59.126;37.876;2023-02-13T15:08:40;98635.09;;;1.35;80.62
67842;BME280;54642;59.126;37.876;2023-02-13T15:11:07;98585.50;;;1.08;80.80
67842;BME280;54642;59.126;37.876;2023-02-13T15:13:53;98625.72;;;1.36;80.62
67842;BME280;54642;59.126;37.876;2023-02-13T15:16:19;98615.53;;;1.37;80.53
67842;BME280;54642;59.126;37.876;2023-02-13T15:18:49;98616.31;;;1.30;80.34
67842;BME280;54642;59.126;37.876;2023-02-13T15:21:24;98599.28;;;1.26;80.52
67842;BME280;54642;59.126;37.876;2023-02-13T15:23:55;98612.94;;;1.34;80.84
67842;BME280;54642;59.126;37.876;2023-02-13T15:26:23;98602.69;;;1.28;80.72
67842;BME280;54642;59.126;37.876;2023-02-13T15:29:02;98544.63;;;1.01;80.77
67842;BME280;54642;59.126;37.876;2023-02-13T15:31:32;98506.19;;;0.81;80.73
67842;BME280;54642;59.126;37.876;2023-02-13T15:34:00;98577.16;;;1.25;80.80
67842;BME280;54642;59.126;37.876;2023-02-13T15:36:34;98570.28;;;1.19;80.71
67842;BME280;54642;59.126;37.876;2023-02-13T15:39:05;98589.97;;;1.29;80.73
67842;BME280;54642;59.126;37.876;2023-02-13T15:41:42;98573.81;;;1.32;80.74
67842;BME280;54642;59.126;37.876;2023-02-13T15:44:15;98531.94;;;1.08;80.82
67842;BME280;54642;59.126;37.876;2023-02-13T15:46:45;98584.09;;;1.43;80.58
67842;BME280;54642;59.126;37.876;2023-02-13T15:49:15;98549.91;;;1.21;80.71
67842;BME280;54642;59.126;37.876;2023-02-13T15:51:42;98513.16;;;1.00;80.90